sensor_id;sensor_type;location;lat;lon;timestamp;temperature;humidity
23591;DHT22;11973;52.098;7.582;2023-01-06T00:01:54;10.20;99.90
23591;DHT22;11973;52.098;7.582;2023-01-06T00:04:19;10.20;99.90
23591;DHT22;11973;52.098;7.582;2023-01-06T00:06:45;10.20;99.90
23591;DHT22;11973;52.098;7.582;2023-01-06T00:09:11;10.20;99.90
23591;DHT22;11973;52.098;7.582;2023-01-06T00:11:37;10.20;99.90
23591;DHT22;11973;52.098;7.582;2023-01-06T00:14:02;10.30;99.90
23591;DHT22;11973;52.098;7.582;2023-01-06T00:16:28;10.20;99.90
23591;DHT22;11973;52.098;7.582;2023-01-06T00:18:56;10.20;99.90
23591;DHT22;11973;52.098;7.582;2023-01-06T00:21:22;10.30;99.90
23591;DHT22;11973;52.098;7.582;2023-01-06T00:23:48;10.20;99.90
23591;DHT22;11973;52.098;7.582;2023-01-06T00:26:14;10.20;99.90
23591;DHT22;11973;52.098;7.582;2023-01-06T00:28:40;10.20;99.90
23591;DHT22;11973;52.098;7.582;2023-01-06T00:31:14;10.20;99.90
23591;DHT22;11973;52.098;7.582;2023-01-06T00:33:40;10.20;99.90
23591;DHT22;11973;52.098;7.582;2023-01-06T00:36:08;10.20;99.90
23591;DHT22;11973;52.098;7.582;2023-01-06T00:38:35;10.20;99.90
23591;DHT22;11973;52.098;7.582;2023-01-06T00:41:12;10.20;99.90
23591;DHT22;11973;52.098;7.582;2023-01-06T00:43:57;10.20;99.90
23591;DHT22;11973;52.098;7.582;2023-01-06T00:46:25;10.20;99.90
23591;DHT22;11973;52.098;7.582;2023-01-06T00:48:56;10.20;99.90
23591;DHT22;11973;52.098;7.582;2023-01-06T00:51:22;10.20;99.90
23591;DHT22;11973;52.098;7.582;2023-01-06T00:53:48;10.20;99.90
23591;DHT22;11973;52.098;7.582;2023-01-06T00:56:14;10.10;99.90
23591;DHT22;11973;52.098;7.582;2023-01-06T00:58:40;10.20;99.90
23591;DHT22;11973;52.098;7.582;2023-01-06T01:01:07;10.20;99.90
23591;DHT22;11973;52.098;7.582;2023-01-06T01:03:34;10.20;99.90
23591;DHT22;11973;52.098;7.582;2023-01-06T01:06:01;10.20;99.90
23591;DHT22;11973;52.098;7.582;2023-01-06T01:08:27;10.20;99.90
23591;DHT22;11973;52.098;7.582;2023-01-06T01:10:54;10.20;99.90
23591;DHT22;11973;52.098;7.582;2023-01-06T01:13:20;10.20;99.90
23591;DHT22;11973;52.098;7.582;2023-01-06T01:15:47;10.20;99.90
23591;DHT22;11973;52.098;7.582;2023-01-06T01:18:14;10.20;99.90
23591;DHT22;11973;52.098;7.582;2023-01-06T01:20:40;10.20;99.90
23591;DHT22;11973;52.098;7.582;2023-01-06T01:23:06;10.40;99.90
23591;DHT22;11973;52.098;7.582;2023-01-06T01:25:31;10.20;99.90
23591;DHT22;11973;52.098;7.582;2023-01-06T01:27:57;10.20;99.90
23591;DHT22;11973;52.098;7.582;2023-01-06T01:30:23;10.40;99.90
23591;DHT22;11973;52.098;7.582;2023-01-06T01:32:48;10.20;99.90
23591;DHT22;11973;52.098;7.582;2023-01-06T01:35:14;10.40;99.90
23591;DHT22;11973;52.098;7.582;2023-01-06T01:37:40;10.20;99.90
23591;DHT22;11973;52.098;7.582;2023-01-06T01:40:06;10.20;99.90
23591;DHT22;11973;52.098;7.582;2023-01-06T01:42:32;10.20;99.90
23591;DHT22;11973;52.098;7.582;2023-01-06T01:44:59;10.20;99.90
23591;DHT22;11973;52.098;7.582;2023-01-06T01:47:40;10.20;99.90
23591;DHT22;11973;52.098;7.582;2023-01-06T01:50:10;10.20;99.90
23591;DHT22;11973;52.098;7.582;2023-01-06T01:52:38;10.20;99.90
23591;DHT22;11973;52.098;7.582;2023-01-06T01:55:06;10.20;99.90
23591;DHT22;11973;52.098;7.582;2023-01-06T01:57:46;10.20;99.90
23591;DHT22;11973;52.098;7.582;2023-01-06T02:00:13;10.20;99.90
23591;DHT22;11973;52.098;7.582;2023-01-06T02:02:39;10.20;99.90
23591;DHT22;11973;52.098;7.582;2023-01-06T02:05:06;10.20;99.90
23591;DHT22;11973;52.098;7.582;2023-01-06T02:07:32;10.20;99.90
23591;DHT22;11973;52.098;7.582;2023-01-06T02:10:10;10.30;99.90
23591;DHT22;11973;52.098;7.582;2023-01-06T02:12:36;10.30;99.90
23591;DHT22;11973;52.098;7.582;2023-01-06T02:15:02;10.40;99.90
23591;DHT22;11973;52.098;7.582;2023-01-06T02:20:38;10.40;99.90
23591;DHT22;11973;52.098;7.582;2023-01-06T02:28:57;10.40;99.90
23591;DHT22;11973;52.098;7.582;2023-01-06T02:31:57;10.40;99.90
23591;DHT22;11973;52.098;7.582;2023-01-06T02:37:27;10.40;99.90
23591;DHT22;11973;52.098;7.582;2023-01-06T02:43:16;10.40;99.90
23591;DHT22;11973;52.098;7.582;2023-01-06T02:45:48;10.40;99.90
23591;DHT22;11973;52.098;7.582;2023-01-06T02:48:40;10.40;99.90
23591;DHT22;11973;52.098;7.582;2023-01-06T02:51:14;10.40;99.90
23591;DHT22;11973;52.098;7.582;2023-01-06T02:56:33;10.40;99.90
23591;DHT22;11973;52.098;7.582;2023-01-06T02:59:04;10.40;99.90
23591;DHT22;11973;52.098;7.582;2023-01-06T03:01:39;10.60;99.90
23591;DHT22;11973;52.098;7.582;2023-01-06T03:04:10;10.40;99.90
23591;DHT22;11973;52.098;7.582;2023-01-06T03:06:39;10.50;99.90
23591;DHT22;11973;52.098;7.582;2023-01-06T03:09:17;10.50;99.90
23591;DHT22;11973;52.098;7.582;2023-01-06T03:11:45;10.40;99.90
23591;DHT22;11973;52.098;7.582;2023-01-06T03:16:43;10.50;99.90
23591;DHT22;11973;52.098;7.582;2023-01-06T03:19:09;10.50;99.90
23591;DHT22;11973;52.098;7.582;2023-01-06T03:21:38;10.50;99.90
23591;DHT22;11973;52.098;7.582;2023-01-06T03:24:06;10.50;99.90
23591;DHT22;11973;52.098;7.582;2023-01-06T03:26:34;10.50;99.90
23591;DHT22;11973;52.098;7.582;2023-01-06T03:29:01;10.70;99.90
23591;DHT22;11973;52.098;7.582;2023-01-06T03:31:51;10.50;99.90
23591;DHT22;11973;52.098;7.582;2023-01-06T03:34:23;10.50;99.90
23591;DHT22;11973;52.098;7.582;2023-01-06T03:37:43;10.50;99.90
23591;DHT22;11973;52.098;7.582;2023-01-06T03:40:41;10.50;99.90
23591;DHT22;11973;52.098;7.582;2023-01-06T03:43:27;10.50;99.90
23591;DHT22;11973;52.098;7.582;2023-01-06T03:51:53;10.50;99.90
23591;DHT22;11973;52.098;7.582;2023-01-06T03:57:13;10.50;99.90
23591;DHT22;11973;52.098;7.582;2023-01-06T04:00:10;10.50;99.90
23591;DHT22;11973;52.098;7.582;2023-01-06T04:02:44;10.50;99.90
23591;DHT22;11973;52.098;7.582;2023-01-06T04:05:23;10.50;99.90
23591;DHT22;11973;52.098;7.582;2023-01-06T04:07:50;10.60;99.90
23591;DHT22;11973;52.098;7.582;2023-01-06T04:10:18;10.50;99.90
23591;DHT22;11973;52.098;7.582;2023-01-06T04:12:46;10.50;99.90
23591;DHT22;11973;52.098;7.582;2023-01-06T04:15:22;10.70;99.90
23591;DHT22;11973;52.098;7.582;2023-01-06T04:17:50;10.50;99.90
23591;DHT22;11973;52.098;7.582;2023-01-06T04:20:20;10.50;99.90
23591;DHT22;11973;52.098;7.582;2023-01-06T04:22:49;10.70;99.90
23591;DHT22;11973;52.098;7.582;2023-01-06T04:25:14;10.60;99.90
23591;DHT22;11973;52.098;7.582;2023-01-06T04:27:42;10.50;99.90
23591;DHT22;11973;52.098;7.582;2023-01-06T04:30:08;10.60;99.90
23591;DHT22;11973;52.098;7.582;2023-01-06T04:32:34;10.60;99.90
23591;DHT22;11973;52.098;7.582;2023-01-06T04:35:04;10.60;99.90
23591;DHT22;11973;52.098;7.582;2023-01-06T04:37:30;10.60;99.90
23591;DHT22;11973;52.098;7.582;2023-01-06T04:39:55;10.60;99.90
23591;DHT22;11973;52.098;7.582;2023-01-06T04:42:21;10.60;99.90
23591;DHT22;11973;52.098;7.582;2023-01-06T04:44:47;10.80;99.90
23591;DHT22;11973;52.098;7.582;2023-01-06T04:47:12;10.60;99.90
23591;DHT22;11973;52.098;7.582;2023-01-06T04:49:38;10.60;99.90
23591;DHT22;11973;52.098;7.582;2023-01-06T04:52:04;10.60;99.90
23591;DHT22;11973;52.098;7.582;2023-01-06T04:54:31;10.60;99.90
23591;DHT22;11973;52.098;7.582;2023-01-06T04:56:57;10.50;99.90
23591;DHT22;11973;52.098;7.582;2023-01-06T04:59:22;10.50;99.90
23591;DHT22;11973;52.098;7.582;2023-01-06T05:01:48;10.60;99.90
23591;DHT22;11973;52.098;7.582;2023-01-06T05:04:14;10.80;99.90
23591;DHT22;11973;52.098;7.582;2023-01-06T05:06:40;10.70;99.90
23591;DHT22;11973;52.098;7.582;2023-01-06T05:09:06;10.60;99.90
23591;DHT22;11973;52.098;7.582;2023-01-06T05:11:32;10.50;99.90
23591;DHT22;11973;52.098;7.582;2023-01-06T05:13:58;10.60;99.90
23591;DHT22;11973;52.098;7.582;2023-01-06T06:02:17;10.50;99.90
23591;DHT22;11973;52.098;7.582;2023-01-06T06:04:43;10.70;99.90
23591;DHT22;11973;52.098;7.582;2023-01-06T06:07:10;10.80;99.90
23591;DHT22;11973;52.098;7.582;2023-01-06T06:09:36;10.70;99.90
23591;DHT22;11973;52.098;7.582;2023-01-06T06:12:02;10.60;99.90
23591;DHT22;11973;52.098;7.582;2023-01-06T06:14:28;10.60;99.90
23591;DHT22;11973;52.098;7.582;2023-01-06T06:16:53;10.60;99.90
23591;DHT22;11973;52.098;7.582;2023-01-06T06:19:20;10.70;99.90
23591;DHT22;11973;52.098;7.582;2023-01-06T06:21:46;10.60;99.90
23591;DHT22;11973;52.098;7.582;2023-01-06T06:24:11;10.60;99.90
23591;DHT22;11973;52.098;7.582;2023-01-06T06:26:37;10.80;99.90
23591;DHT22;11973;52.098;7.582;2023-01-06T06:29:05;10.60;99.90
23591;DHT22;11973;52.098;7.582;2023-01-06T06:31:30;10.60;99.90
23591;DHT22;11973;52.098;7.582;2023-01-06T06:33:58;10.60;99.90
23591;DHT22;11973;52.098;7.582;2023-01-06T06:36:24;10.80;99.90
23591;DHT22;11973;52.098;7.582;2023-01-06T06:38:51;10.70;99.90
23591;DHT22;11973;52.098;7.582;2023-01-06T06:41:18;10.60;99.90
23591;DHT22;11973;52.098;7.582;2023-01-06T06:43:44;10.70;99.90
23591;DHT22;11973;52.098;7.582;2023-01-06T06:46:10;10.70;99.90
23591;DHT22;11973;52.098;7.582;2023-01-06T06:48:36;10.70;99.90
23591;DHT22;11973;52.098;7.582;2023-01-06T06:51:07;10.60;99.90
23591;DHT22;11973;52.098;7.582;2023-01-06T06:53:34;10.80;99.90
23591;DHT22;11973;52.098;7.582;2023-01-06T06:56:00;10.80;99.90
23591;DHT22;11973;52.098;7.582;2023-01-06T06:58:26;10.70;99.90
23591;DHT22;11973;52.098;7.582;2023-01-06T07:00:52;10.90;99.90
23591;DHT22;11973;52.098;7.582;2023-01-06T07:03:18;10.70;99.90
23591;DHT22;11973;52.098;7.582;2023-01-06T07:05:45;10.70;99.90
23591;DHT22;11973;52.098;7.582;2023-01-06T07:08:12;10.60;99.90
23591;DHT22;11973;52.098;7.582;2023-01-06T07:10:38;10.60;99.90
23591;DHT22;11973;52.098;7.582;2023-01-06T07:13:04;10.60;99.90
23591;DHT22;11973;52.098;7.582;2023-01-06T07:15:29;10.80;99.90
23591;DHT22;11973;52.098;7.582;2023-01-06T07:18:01;10.70;99.90
23591;DHT22;11973;52.098;7.582;2023-01-06T07:20:31;10.60;99.90
23591;DHT22;11973;52.098;7.582;2023-01-06T07:22:58;10.60;99.90
23591;DHT22;11973;52.098;7.582;2023-01-06T07:25:23;10.80;99.90
23591;DHT22;11973;52.098;7.582;2023-01-06T07:27:57;10.80;99.90
23591;DHT22;11973;52.098;7.582;2023-01-06T07:30:23;10.60;99.90
23591;DHT22;11973;52.098;7.582;2023-01-06T07:32:49;10.60;99.90
23591;DHT22;11973;52.098;7.582;2023-01-06T07:35:15;10.70;99.90
23591;DHT22;11973;52.098;7.582;2023-01-06T07:37:41;10.70;99.90
23591;DHT22;11973;52.098;7.582;2023-01-06T07:40:07;10.70;99.90
23591;DHT22;11973;52.098;7.582;2023-01-06T07:42:35;10.70;99.90
23591;DHT22;11973;52.098;7.582;2023-01-06T07:45:01;10.70;99.90
23591;DHT22;11973;52.098;7.582;2023-01-06T07:47:27;10.70;99.90
23591;DHT22;11973;52.098;7.582;2023-01-06T07:49:52;10.80;99.90
23591;DHT22;11973;52.098;7.582;2023-01-06T07:52:18;10.80;99.90
23591;DHT22;11973;52.098;7.582;2023-01-06T07:54:44;10.90;99.90
23591;DHT22;11973;52.098;7.582;2023-01-06T07:57:09;10.70;99.90
23591;DHT22;11973;52.098;7.582;2023-01-06T07:59:35;10.70;99.90
23591;DHT22;11973;52.098;7.582;2023-01-06T08:02:01;10.70;99.90
23591;DHT22;11973;52.098;7.582;2023-01-06T08:04:26;10.70;99.90
23591;DHT22;11973;52.098;7.582;2023-01-06T08:06:52;10.80;99.90
23591;DHT22;11973;52.098;7.582;2023-01-06T08:09:18;10.70;99.90
23591;DHT22;11973;52.098;7.582;2023-01-06T08:11:44;10.70;99.90
23591;DHT22;11973;52.098;7.582;2023-01-06T08:14:12;10.70;99.90
23591;DHT22;11973;52.098;7.582;2023-01-06T08:16:38;10.70;99.90
23591;DHT22;11973;52.098;7.582;2023-01-06T08:19:04;10.70;99.90
23591;DHT22;11973;52.098;7.582;2023-01-06T08:21:30;10.80;99.90
23591;DHT22;11973;52.098;7.582;2023-01-06T08:23:56;10.70;99.90
23591;DHT22;11973;52.098;7.582;2023-01-06T08:26:22;10.70;99.90
23591;DHT22;11973;52.098;7.582;2023-01-06T08:28:48;10.80;99.90
23591;DHT22;11973;52.098;7.582;2023-01-06T08:31:18;10.80;99.90
23591;DHT22;11973;52.098;7.582;2023-01-06T08:33:45;10.90;99.90
23591;DHT22;11973;52.098;7.582;2023-01-06T08:36:13;10.80;99.90
23591;DHT22;11973;52.098;7.582;2023-01-06T08:38:39;10.80;99.90
23591;DHT22;11973;52.098;7.582;2023-01-06T08:41:05;10.90;99.90
23591;DHT22;11973;52.098;7.582;2023-01-06T08:43:31;10.80;99.90
23591;DHT22;11973;52.098;7.582;2023-01-06T08:46:02;10.80;99.90
23591;DHT22;11973;52.098;7.582;2023-01-06T08:48:29;10.80;99.90
23591;DHT22;11973;52.098;7.582;2023-01-06T08:51:08;11.00;99.90
23591;DHT22;11973;52.098;7.582;2023-01-06T08:53:35;10.80;99.90
23591;DHT22;11973;52.098;7.582;2023-01-06T08:56:00;10.90;99.90
23591;DHT22;11973;52.098;7.582;2023-01-06T08:58:26;10.90;99.90
23591;DHT22;11973;52.098;7.582;2023-01-06T09:00:52;10.90;99.90
23591;DHT22;11973;52.098;7.582;2023-01-06T09:03:18;10.90;99.90
23591;DHT22;11973;52.098;7.582;2023-01-06T09:05:51;10.80;99.90
23591;DHT22;11973;52.098;7.582;2023-01-06T09:08:17;10.80;99.90
23591;DHT22;11973;52.098;7.582;2023-01-06T09:10:44;11.00;99.90
23591;DHT22;11973;52.098;7.582;2023-01-06T09:13:10;10.70;99.90
23591;DHT22;11973;52.098;7.582;2023-01-06T09:15:39;10.70;99.90
23591;DHT22;11973;52.098;7.582;2023-01-06T09:18:05;10.90;99.90
23591;DHT22;11973;52.098;7.582;2023-01-06T09:20:33;10.60;99.90
23591;DHT22;11973;52.098;7.582;2023-01-06T09:22:59;10.60;99.90
23591;DHT22;11973;52.098;7.582;2023-01-06T09:25:25;10.60;99.90
23591;DHT22;11973;52.098;7.582;2023-01-06T09:27:51;10.60;99.90
23591;DHT22;11973;52.098;7.582;2023-01-06T09:30:16;10.60;99.90
23591;DHT22;11973;52.098;7.582;2023-01-06T09:32:42;10.60;99.90
23591;DHT22;11973;52.098;7.582;2023-01-06T09:35:08;10.60;99.90
23591;DHT22;11973;52.098;7.582;2023-01-06T09:37:34;10.60;99.90
23591;DHT22;11973;52.098;7.582;2023-01-06T09:40:00;10.60;99.90
23591;DHT22;11973;52.098;7.582;2023-01-06T09:42:34;10.80;99.90
23591;DHT22;11973;52.098;7.582;2023-01-06T09:45:16;10.60;99.90
23591;DHT22;11973;52.098;7.582;2023-01-06T09:47:48;10.80;99.90
23591;DHT22;11973;52.098;7.582;2023-01-06T09:50:45;10.60;99.90
23591;DHT22;11973;52.098;7.582;2023-01-06T09:53:23;10.60;99.90
23591;DHT22;11973;52.098;7.582;2023-01-06T09:56:03;10.60;99.90
23591;DHT22;11973;52.098;7.582;2023-01-06T09:58:44;10.60;99.90
23591;DHT22;11973;52.098;7.582;2023-01-06T10:01:14;10.60;99.90
23591;DHT22;11973;52.098;7.582;2023-01-06T10:03:43;10.60;99.90
23591;DHT22;11973;52.098;7.582;2023-01-06T10:26:14;10.80;99.90
23591;DHT22;11973;52.098;7.582;2023-01-06T10:28:46;10.80;99.90
23591;DHT22;11973;52.098;7.582;2023-01-06T10:31:22;10.90;99.90
23591;DHT22;11973;52.098;7.582;2023-01-06T10:33:54;10.90;99.90
23591;DHT22;11973;52.098;7.582;2023-01-06T10:36:32;11.00;99.90
23591;DHT22;11973;52.098;7.582;2023-01-06T10:39:08;11.10;99.90
23591;DHT22;11973;52.098;7.582;2023-01-06T10:44:14;11.20;99.90
23591;DHT22;11973;52.098;7.582;2023-01-06T10:46:42;11.20;99.90
23591;DHT22;11973;52.098;7.582;2023-01-06T10:49:20;11.30;99.90
23591;DHT22;11973;52.098;7.582;2023-01-06T10:51:51;11.30;99.90
23591;DHT22;11973;52.098;7.582;2023-01-06T10:54:27;11.30;99.90
23591;DHT22;11973;52.098;7.582;2023-01-06T10:57:08;11.20;99.90
23591;DHT22;11973;52.098;7.582;2023-01-06T11:00:21;11.20;99.90
23591;DHT22;11973;52.098;7.582;2023-01-06T11:02:53;11.20;99.90
23591;DHT22;11973;52.098;7.582;2023-01-06T11:05:30;11.10;99.90
23591;DHT22;11973;52.098;7.582;2023-01-06T11:08:09;11.10;99.90
23591;DHT22;11973;52.098;7.582;2023-01-06T11:15:53;11.10;99.90
23591;DHT22;11973;52.098;7.582;2023-01-06T11:18:28;11.00;99.90
23591;DHT22;11973;52.098;7.582;2023-01-06T11:21:13;11.00;99.90
23591;DHT22;11973;52.098;7.582;2023-01-06T11:23:44;10.90;99.90
23591;DHT22;11973;52.098;7.582;2023-01-06T11:28:38;10.90;99.90
23591;DHT22;11973;52.098;7.582;2023-01-06T11:31:05;10.90;99.90
23591;DHT22;11973;52.098;7.582;2023-01-06T11:33:34;10.80;99.90
23591;DHT22;11973;52.098;7.582;2023-01-06T11:36:09;10.80;99.90
23591;DHT22;11973;52.098;7.582;2023-01-06T11:38:59;10.80;99.90
23591;DHT22;11973;52.098;7.582;2023-01-06T11:41:37;10.70;99.90
23591;DHT22;11973;52.098;7.582;2023-01-06T11:44:17;10.80;99.90
23591;DHT22;11973;52.098;7.582;2023-01-06T11:46:50;10.90;99.90
23591;DHT22;11973;52.098;7.582;2023-01-06T11:51:50;10.80;99.90
23591;DHT22;11973;52.098;7.582;2023-01-06T11:57:02;10.80;99.90
23591;DHT22;11973;52.098;7.582;2023-01-06T11:59:55;10.80;99.90
23591;DHT22;11973;52.098;7.582;2023-01-06T12:02:44;10.80;99.90
23591;DHT22;11973;52.098;7.582;2023-01-06T12:05:24;10.80;99.90
23591;DHT22;11973;52.098;7.582;2023-01-06T12:07:55;10.80;99.90
23591;DHT22;11973;52.098;7.582;2023-01-06T12:10:27;10.90;99.90
23591;DHT22;11973;52.098;7.582;2023-01-06T12:12:54;10.90;99.90
23591;DHT22;11973;52.098;7.582;2023-01-06T12:15:21;10.90;99.90
23591;DHT22;11973;52.098;7.582;2023-01-06T12:17:52;10.90;99.90
23591;DHT22;11973;52.098;7.582;2023-01-06T12:20:24;11.00;99.90
23591;DHT22;11973;52.098;7.582;2023-01-06T12:23:00;11.00;99.90
23591;DHT22;11973;52.098;7.582;2023-01-06T12:25:30;11.10;99.90
23591;DHT22;11973;52.098;7.582;2023-01-06T12:30:50;10.90;99.90
23591;DHT22;11973;52.098;7.582;2023-01-06T12:36:32;10.90;99.90
23591;DHT22;11973;52.098;7.582;2023-01-06T12:39:06;10.90;99.90
23591;DHT22;11973;52.098;7.582;2023-01-06T12:41:40;10.90;99.90
23591;DHT22;11973;52.098;7.582;2023-01-06T12:47:00;11.00;99.90
23591;DHT22;11973;52.098;7.582;2023-01-06T12:52:10;11.00;99.90
23591;DHT22;11973;52.098;7.582;2023-01-06T12:54:37;11.10;99.90
23591;DHT22;11973;52.098;7.582;2023-01-06T12:57:12;11.10;99.90
23591;DHT22;11973;52.098;7.582;2023-01-06T13:10:51;11.10;99.90
23591;DHT22;11973;52.098;7.582;2023-01-06T13:16:23;11.20;99.90
23591;DHT22;11973;52.098;7.582;2023-01-06T13:21:52;11.20;99.90
23591;DHT22;11973;52.098;7.582;2023-01-06T13:24:36;11.20;99.90
23591;DHT22;11973;52.098;7.582;2023-01-06T13:36:02;11.30;99.90
23591;DHT22;11973;52.098;7.582;2023-01-06T13:38:53;11.30;99.90
23591;DHT22;11973;52.098;7.582;2023-01-06T13:41:23;11.30;99.90
23591;DHT22;11973;52.098;7.582;2023-01-06T13:43:52;11.40;99.90
23591;DHT22;11973;52.098;7.582;2023-01-06T13:46:20;11.40;99.90
23591;DHT22;11973;52.098;7.582;2023-01-06T13:48:59;11.50;99.90
23591;DHT22;11973;52.098;7.582;2023-01-06T13:51:34;11.50;99.90
23591;DHT22;11973;52.098;7.582;2023-01-06T13:54:00;11.50;99.90
23591;DHT22;11973;52.098;7.582;2023-01-06T13:56:37;11.50;99.90
23591;DHT22;11973;52.098;7.582;2023-01-06T13:59:23;11.50;99.90
23591;DHT22;11973;52.098;7.582;2023-01-06T14:01:50;11.50;99.90
23591;DHT22;11973;52.098;7.582;2023-01-06T14:06:54;11.50;99.90
23591;DHT22;11973;52.098;7.582;2023-01-06T14:09:20;11.40;99.90
23591;DHT22;11973;52.098;7.582;2023-01-06T14:11:46;11.40;99.90
23591;DHT22;11973;52.098;7.582;2023-01-06T14:14:24;11.40;99.90
23591;DHT22;11973;52.098;7.582;2023-01-06T14:16:52;11.40;99.90
23591;DHT22;11973;52.098;7.582;2023-01-06T14:19:32;11.40;99.90
23591;DHT22;11973;52.098;7.582;2023-01-06T14:22:20;11.30;99.90
23591;DHT22;11973;52.098;7.582;2023-01-06T14:24:52;11.30;99.90
23591;DHT22;11973;52.098;7.582;2023-01-06T14:30:21;11.30;99.90
23591;DHT22;11973;52.098;7.582;2023-01-06T14:35:15;11.30;99.90
23591;DHT22;11973;52.098;7.582;2023-01-06T14:37:52;11.30;99.90
23591;DHT22;11973;52.098;7.582;2023-01-06T14:40:23;11.30;99.90
23591;DHT22;11973;52.098;7.582;2023-01-06T14:42:50;11.30;99.90
23591;DHT22;11973;52.098;7.582;2023-01-06T14:45:34;11.30;99.90
23591;DHT22;11973;52.098;7.582;2023-01-06T14:48:04;11.20;99.90
23591;DHT22;11973;52.098;7.582;2023-01-06T14:50:37;11.20;99.90
23591;DHT22;11973;52.098;7.582;2023-01-06T14:55:45;11.10;99.90
23591;DHT22;11973;52.098;7.582;2023-01-06T14:58:32;11.10;99.90
23591;DHT22;11973;52.098;7.582;2023-01-06T15:00:58;11.20;99.90
23591;DHT22;11973;52.098;7.582;2023-01-06T15:03:26;11.10;99.90
23591;DHT22;11973;52.098;7.582;2023-01-06T15:06:15;11.10;99.90
23591;DHT22;11973;52.098;7.582;2023-01-06T15:08:42;10.90;99.90
23591;DHT22;11973;52.098;7.582;2023-01-06T15:11:31;10.90;99.90
23591;DHT22;11973;52.098;7.582;2023-01-06T15:13:59;10.80;99.90
23591;DHT22;11973;52.098;7.582;2023-01-06T15:16:39;10.80;99.90
23591;DHT22;11973;52.098;7.582;2023-01-06T15:19:12;10.80;99.90
23591;DHT22;11973;52.098;7.582;2023-01-06T15:21:40;10.70;99.90
23591;DHT22;11973;52.098;7.582;2023-01-06T15:24:23;10.70;99.90
23591;DHT22;11973;52.098;7.582;2023-01-06T15:26:51;10.70;99.90
23591;DHT22;11973;52.098;7.582;2023-01-06T15:29:23;10.60;99.90
23591;DHT22;11973;52.098;7.582;2023-01-06T15:31:52;10.50;99.90
23591;DHT22;11973;52.098;7.582;2023-01-06T15:34:39;10.50;99.90
23591;DHT22;11973;52.098;7.582;2023-01-06T15:37:08;10.40;99.90
23591;DHT22;11973;52.098;7.582;2023-01-06T15:39:38;10.40;99.90
23591;DHT22;11973;52.098;7.582;2023-01-06T15:42:05;10.30;99.90
23591;DHT22;11973;52.098;7.582;2023-01-06T15:44:34;10.20;99.90
23591;DHT22;11973;52.098;7.582;2023-01-06T15:49:37;10.20;99.90
23591;DHT22;11973;52.098;7.582;2023-01-06T15:52:07;10.20;99.90
23591;DHT22;11973;52.098;7.582;2023-01-06T15:54:42;10.10;99.90
23591;DHT22;11973;52.098;7.582;2023-01-06T15:57:11;10.10;99.90
23591;DHT22;11973;52.098;7.582;2023-01-06T15:59:38;10.00;99.90
23591;DHT22;11973;52.098;7.582;2023-01-06T16:02:12;9.90;99.90
23591;DHT22;11973;52.098;7.582;2023-01-06T16:04:43;9.80;99.90
23591;DHT22;11973;52.098;7.582;2023-01-06T16:07:35;9.80;99.90
23591;DHT22;11973;52.098;7.582;2023-01-06T16:10:01;9.70;99.90
23591;DHT22;11973;52.098;7.582;2023-01-06T16:12:27;9.60;99.90
23591;DHT22;11973;52.098;7.582;2023-01-06T16:14:53;9.50;99.90
23591;DHT22;11973;52.098;7.582;2023-01-06T16:19:56;9.40;99.90
23591;DHT22;11973;52.098;7.582;2023-01-06T16:24:57;9.20;99.90
23591;DHT22;11973;52.098;7.582;2023-01-06T16:27:25;9.20;99.90
23591;DHT22;11973;52.098;7.582;2023-01-06T16:32:38;9.00;99.90
23591;DHT22;11973;52.098;7.582;2023-01-06T16:35:13;9.00;99.90
23591;DHT22;11973;52.098;7.582;2023-01-06T16:37:40;9.10;99.90
23591;DHT22;11973;52.098;7.582;2023-01-06T16:40:06;8.90;99.90
23591;DHT22;11973;52.098;7.582;2023-01-06T16:42:34;8.90;99.90
23591;DHT22;11973;52.098;7.582;2023-01-06T16:48:05;8.80;99.90
23591;DHT22;11973;52.098;7.582;2023-01-06T16:55:35;8.70;99.90
23591;DHT22;11973;52.098;7.582;2023-01-06T17:00:39;8.70;99.90
23591;DHT22;11973;52.098;7.582;2023-01-06T17:03:15;8.40;99.90
23591;DHT22;11973;52.098;7.582;2023-01-06T17:05:42;8.60;99.90
23591;DHT22;11973;52.098;7.582;2023-01-06T17:08:10;8.70;99.90
23591;DHT22;11973;52.098;7.582;2023-01-06T17:10:37;8.90;99.90
23591;DHT22;11973;52.098;7.582;2023-01-06T17:13:04;8.70;99.90
23591;DHT22;11973;52.098;7.582;2023-01-06T17:15:57;8.70;99.90
23591;DHT22;11973;52.098;7.582;2023-01-06T17:18:28;8.70;99.90
23591;DHT22;11973;52.098;7.582;2023-01-06T17:21:02;8.80;99.90
23591;DHT22;11973;52.098;7.582;2023-01-06T17:23:40;8.80;99.90
23591;DHT22;11973;52.098;7.582;2023-01-06T17:26:12;8.80;99.90
23591;DHT22;11973;52.098;7.582;2023-01-06T17:28:38;8.80;99.90
23591;DHT22;11973;52.098;7.582;2023-01-06T17:31:13;8.80;99.90
23591;DHT22;11973;52.098;7.582;2023-01-06T17:33:39;8.80;99.90
23591;DHT22;11973;52.098;7.582;2023-01-06T17:36:06;9.00;99.90
23591;DHT22;11973;52.098;7.582;2023-01-06T17:38:34;8.80;99.90
23591;DHT22;11973;52.098;7.582;2023-01-06T17:40:59;8.80;99.90
23591;DHT22;11973;52.098;7.582;2023-01-06T17:43:30;8.80;99.90
23591;DHT22;11973;52.098;7.582;2023-01-06T17:45:58;8.80;99.90
23591;DHT22;11973;52.098;7.582;2023-01-06T17:48:25;8.80;99.90
23591;DHT22;11973;52.098;7.582;2023-01-06T17:50:53;8.80;99.90
23591;DHT22;11973;52.098;7.582;2023-01-06T17:53:31;8.70;99.90
23591;DHT22;11973;52.098;7.582;2023-01-06T17:56:16;8.70;99.90
23591;DHT22;11973;52.098;7.582;2023-01-06T17:58:44;8.70;99.90
23591;DHT22;11973;52.098;7.582;2023-01-06T18:01:25;8.60;99.90
23591;DHT22;11973;52.098;7.582;2023-01-06T18:03:52;8.60;99.90
23591;DHT22;11973;52.098;7.582;2023-01-06T18:06:31;8.60;99.90
23591;DHT22;11973;52.098;7.582;2023-01-06T18:09:14;8.50;99.90
23591;DHT22;11973;52.098;7.582;2023-01-06T18:14:30;8.60;99.90
23591;DHT22;11973;52.098;7.582;2023-01-06T18:16:58;8.60;99.90
23591;DHT22;11973;52.098;7.582;2023-01-06T18:19:36;8.70;99.90
23591;DHT22;11973;52.098;7.582;2023-01-06T18:22:12;8.70;99.90
23591;DHT22;11973;52.098;7.582;2023-01-06T18:24:39;8.70;99.90
23591;DHT22;11973;52.098;7.582;2023-01-06T18:27:35;8.90;99.90
23591;DHT22;11973;52.098;7.582;2023-01-06T18:30:22;8.80;99.90
23591;DHT22;11973;52.098;7.582;2023-01-06T18:32:50;8.90;99.90
23591;DHT22;11973;52.098;7.582;2023-01-06T18:35:22;9.00;99.90
23591;DHT22;11973;52.098;7.582;2023-01-06T18:37:49;8.90;99.90
23591;DHT22;11973;52.098;7.582;2023-01-06T18:40:21;9.00;99.90
23591;DHT22;11973;52.098;7.582;2023-01-06T18:42:53;9.20;99.90
23591;DHT22;11973;52.098;7.582;2023-01-06T18:45:23;8.90;99.90
23591;DHT22;11973;52.098;7.582;2023-01-06T18:47:55;8.90;99.90
23591;DHT22;11973;52.098;7.582;2023-01-06T18:50:42;8.90;99.90
23591;DHT22;11973;52.098;7.582;2023-01-06T18:55:48;8.90;99.90
23591;DHT22;11973;52.098;7.582;2023-01-06T18:58:36;8.90;99.90
23591;DHT22;11973;52.098;7.582;2023-01-06T19:06:47;9.00;99.90